sensor_id;sensor_type;location;lat;lon;timestamp;P1;durP1;ratioP1;P2;durP2;ratioP2
2476;SDS011;1249;51.270;6.756;2023-06-14T00:01:46;10.23;;;6.20;;
2476;SDS011;1249;51.270;6.756;2023-06-14T00:04:12;8.83;;;5.57;;
2476;SDS011;1249;51.270;6.756;2023-06-14T00:06:38;5.17;;;4.50;;
2476;SDS011;1249;51.270;6.756;2023-06-14T00:09:04;6.57;;;5.40;;
2476;SDS011;1249;51.270;6.756;2023-06-14T00:11:30;6.83;;;5.20;;
2476;SDS011;1249;51.270;6.756;2023-06-14T00:13:56;7.53;;;5.73;;
2476;SDS011;1249;51.270;6.756;2023-06-14T00:16:22;6.03;;;5.43;;
2476;SDS011;1249;51.270;6.756;2023-06-14T00:18:48;5.10;;;4.37;;
2476;SDS011;1249;51.270;6.756;2023-06-14T00:21:14;5.57;;;5.07;;
2476;SDS011;1249;51.270;6.756;2023-06-14T00:23:40;4.60;;;4.20;;
2476;SDS011;1249;51.270;6.756;2023-06-14T00:26:05;5.53;;;5.03;;
2476;SDS011;1249;51.270;6.756;2023-06-14T00:28:31;6.40;;;4.73;;
2476;SDS011;1249;51.270;6.756;2023-06-14T00:30:56;6.23;;;5.00;;
2476;SDS011;1249;51.270;6.756;2023-06-14T00:33:22;5.77;;;5.20;;
2476;SDS011;1249;51.270;6.756;2023-06-14T00:35:47;5.07;;;4.57;;
2476;SDS011;1249;51.270;6.756;2023-06-14T00:38:13;6.37;;;5.77;;
2476;SDS011;1249;51.270;6.756;2023-06-14T00:40:39;9.63;;;5.30;;
2476;SDS011;1249;51.270;6.756;2023-06-14T00:43:04;5.00;;;4.60;;
2476;SDS011;1249;51.270;6.756;2023-06-14T00:45:30;6.23;;;5.50;;
2476;SDS011;1249;51.270;6.756;2023-06-14T00:48:00;5.80;;;5.27;;
2476;SDS011;1249;51.270;6.756;2023-06-14T00:50:27;5.50;;;5.00;;
2476;SDS011;1249;51.270;6.756;2023-06-14T00:52:54;6.13;;;5.53;;
2476;SDS011;1249;51.270;6.756;2023-06-14T00:55:21;4.93;;;4.53;;
2476;SDS011;1249;51.270;6.756;2023-06-14T00:57:46;7.03;;;5.40;;
2476;SDS011;1249;51.270;6.756;2023-06-14T01:00:13;6.40;;;5.77;;
2476;SDS011;1249;51.270;6.756;2023-06-14T01:02:39;6.07;;;5.47;;
2476;SDS011;1249;51.270;6.756;2023-06-14T01:05:05;6.10;;;5.47;;
2476;SDS011;1249;51.270;6.756;2023-06-14T01:07:51;5.83;;;5.33;;
2476;SDS011;1249;51.270;6.756;2023-06-14T01:10:41;5.90;;;5.40;;
2476;SDS011;1249;51.270;6.756;2023-06-14T01:13:13;6.00;;;5.10;;
2476;SDS011;1249;51.270;6.756;2023-06-14T01:15:45;6.30;;;5.70;;
2476;SDS011;1249;51.270;6.756;2023-06-14T01:18:12;9.80;;;4.77;;
2476;SDS011;1249;51.270;6.756;2023-06-14T01:20:45;6.10;;;5.50;;
2476;SDS011;1249;51.270;6.756;2023-06-14T01:23:14;7.53;;;5.97;;
2476;SDS011;1249;51.270;6.756;2023-06-14T01:25:43;5.97;;;5.30;;
2476;SDS011;1249;51.270;6.756;2023-06-14T01:28:18;6.93;;;5.83;;
2476;SDS011;1249;51.270;6.756;2023-06-14T01:30:46;5.70;;;5.20;;
2476;SDS011;1249;51.270;6.756;2023-06-14T01:33:24;5.80;;;5.40;;
2476;SDS011;1249;51.270;6.756;2023-06-14T01:35:52;6.20;;;5.60;;
2476;SDS011;1249;51.270;6.756;2023-06-14T01:38:20;4.97;;;4.47;;
2476;SDS011;1249;51.270;6.756;2023-06-14T01:40:48;10.30;;;5.30;;
2476;SDS011;1249;51.270;6.756;2023-06-14T01:43:16;4.57;;;4.27;;
2476;SDS011;1249;51.270;6.756;2023-06-14T01:45:43;5.90;;;5.30;;
2476;SDS011;1249;51.270;6.756;2023-06-14T01:48:10;7.10;;;5.83;;
2476;SDS011;1249;51.270;6.756;2023-06-14T01:50:37;5.90;;;5.40;;
2476;SDS011;1249;51.270;6.756;2023-06-14T01:53:03;6.50;;;5.90;;
2476;SDS011;1249;51.270;6.756;2023-06-14T01:55:32;9.70;;;5.53;;
2476;SDS011;1249;51.270;6.756;2023-06-14T01:58:02;5.80;;;5.30;;
2476;SDS011;1249;51.270;6.756;2023-06-14T02:00:28;6.20;;;5.47;;
2476;SDS011;1249;51.270;6.756;2023-06-14T02:02:54;7.87;;;5.50;;
2476;SDS011;1249;51.270;6.756;2023-06-14T02:05:20;6.50;;;5.90;;
2476;SDS011;1249;51.270;6.756;2023-06-14T02:07:46;7.80;;;5.30;;
2476;SDS011;1249;51.270;6.756;2023-06-14T02:10:15;10.50;;;8.60;;
2476;SDS011;1249;51.270;6.756;2023-06-14T02:12:44;5.83;;;5.07;;
2476;SDS011;1249;51.270;6.756;2023-06-14T02:15:13;7.43;;;6.20;;
2476;SDS011;1249;51.270;6.756;2023-06-14T02:17:43;6.33;;;5.60;;
2476;SDS011;1249;51.270;6.756;2023-06-14T02:20:09;8.30;;;5.63;;
2476;SDS011;1249;51.270;6.756;2023-06-14T02:22:35;5.73;;;5.23;;
2476;SDS011;1249;51.270;6.756;2023-06-14T02:25:01;7.27;;;5.07;;
2476;SDS011;1249;51.270;6.756;2023-06-14T02:27:27;7.00;;;5.50;;
2476;SDS011;1249;51.270;6.756;2023-06-14T02:29:52;5.73;;;5.20;;
2476;SDS011;1249;51.270;6.756;2023-06-14T02:32:18;5.57;;;5.00;;
2476;SDS011;1249;51.270;6.756;2023-06-14T02:34:43;6.37;;;5.50;;
2476;SDS011;1249;51.270;6.756;2023-06-14T02:37:09;6.40;;;5.80;;
2476;SDS011;1249;51.270;6.756;2023-06-14T02:39:36;6.17;;;5.67;;
2476;SDS011;1249;51.270;6.756;2023-06-14T02:42:01;6.40;;;5.53;;
2476;SDS011;1249;51.270;6.756;2023-06-14T02:44:27;7.03;;;6.33;;
2476;SDS011;1249;51.270;6.756;2023-06-14T02:46:53;6.60;;;5.90;;
2476;SDS011;1249;51.270;6.756;2023-06-14T02:49:20;10.43;;;5.93;;
2476;SDS011;1249;51.270;6.756;2023-06-14T02:51:46;5.47;;;4.97;;
2476;SDS011;1249;51.270;6.756;2023-06-14T02:54:12;6.23;;;5.73;;
2476;SDS011;1249;51.270;6.756;2023-06-14T02:56:38;6.43;;;5.83;;
2476;SDS011;1249;51.270;6.756;2023-06-14T02:59:07;5.93;;;5.50;;
2476;SDS011;1249;51.270;6.756;2023-06-14T03:01:34;5.97;;;5.43;;
2476;SDS011;1249;51.270;6.756;2023-06-14T03:04:00;10.10;;;5.67;;
2476;SDS011;1249;51.270;6.756;2023-06-14T03:06:27;6.00;;;5.50;;
2476;SDS011;1249;51.270;6.756;2023-06-14T03:08:54;5.10;;;4.70;;
2476;SDS011;1249;51.270;6.756;2023-06-14T03:11:22;6.27;;;5.53;;
2476;SDS011;1249;51.270;6.756;2023-06-14T03:13:47;5.50;;;5.00;;
2476;SDS011;1249;51.270;6.756;2023-06-14T03:16:13;6.30;;;5.40;;
2476;SDS011;1249;51.270;6.756;2023-06-14T03:18:38;7.90;;;4.97;;
2476;SDS011;1249;51.270;6.756;2023-06-14T03:21:04;6.20;;;5.27;;
2476;SDS011;1249;51.270;6.756;2023-06-14T03:23:32;5.93;;;5.43;;
2476;SDS011;1249;51.270;6.756;2023-06-14T03:25:57;9.83;;;5.93;;
2476;SDS011;1249;51.270;6.756;2023-06-14T03:28:23;5.87;;;5.37;;
2476;SDS011;1249;51.270;6.756;2023-06-14T03:30:48;6.40;;;5.80;;
2476;SDS011;1249;51.270;6.756;2023-06-14T03:33:14;6.13;;;5.37;;
2476;SDS011;1249;51.270;6.756;2023-06-14T03:35:40;5.77;;;5.27;;
2476;SDS011;1249;51.270;6.756;2023-06-14T03:38:06;6.80;;;5.33;;
2476;SDS011;1249;51.270;6.756;2023-06-14T03:40:35;4.83;;;4.50;;
2476;SDS011;1249;51.270;6.756;2023-06-14T03:43:00;8.83;;;5.23;;
2476;SDS011;1249;51.270;6.756;2023-06-14T03:45:26;6.20;;;5.70;;
2476;SDS011;1249;51.270;6.756;2023-06-14T03:47:51;6.30;;;5.70;;
2476;SDS011;1249;51.270;6.756;2023-06-14T03:50:17;5.60;;;5.00;;
2476;SDS011;1249;51.270;6.756;2023-06-14T03:52:44;6.43;;;5.27;;
2476;SDS011;1249;51.270;6.756;2023-06-14T03:55:12;5.40;;;4.90;;
2476;SDS011;1249;51.270;6.756;2023-06-14T03:57:39;9.23;;;5.53;;
2476;SDS011;1249;51.270;6.756;2023-06-14T04:00:04;7.30;;;6.60;;
2476;SDS011;1249;51.270;6.756;2023-06-14T04:02:31;10.57;;;7.13;;
2476;SDS011;1249;51.270;6.756;2023-06-14T04:04:56;5.30;;;4.90;;
2476;SDS011;1249;51.270;6.756;2023-06-14T04:07:22;6.80;;;5.83;;
2476;SDS011;1249;51.270;6.756;2023-06-14T04:09:48;7.20;;;6.40;;
2476;SDS011;1249;51.270;6.756;2023-06-14T04:12:13;6.37;;;5.10;;
2476;SDS011;1249;51.270;6.756;2023-06-14T04:14:39;6.70;;;6.10;;
2476;SDS011;1249;51.270;6.756;2023-06-14T04:17:05;9.17;;;6.20;;
2476;SDS011;1249;51.270;6.756;2023-06-14T04:19:31;5.63;;;5.13;;
2476;SDS011;1249;51.270;6.756;2023-06-14T04:21:57;6.73;;;5.97;;
2476;SDS011;1249;51.270;6.756;2023-06-14T04:24:26;6.00;;;5.40;;
2476;SDS011;1249;51.270;6.756;2023-06-14T04:26:57;5.67;;;5.00;;
2476;SDS011;1249;51.270;6.756;2023-06-14T04:29:23;6.30;;;5.70;;
2476;SDS011;1249;51.270;6.756;2023-06-14T04:31:51;7.57;;;5.60;;
2476;SDS011;1249;51.270;6.756;2023-06-14T04:34:19;5.47;;;5.07;;
2476;SDS011;1249;51.270;6.756;2023-06-14T04:36:46;5.30;;;4.83;;
2476;SDS011;1249;51.270;6.756;2023-06-14T04:39:18;10.83;;;5.53;;
2476;SDS011;1249;51.270;6.756;2023-06-14T04:41:44;5.63;;;5.10;;
2476;SDS011;1249;51.270;6.756;2023-06-14T04:44:10;5.20;;;4.43;;
2476;SDS011;1249;51.270;6.756;2023-06-14T04:46:37;5.80;;;5.20;;
2476;SDS011;1249;51.270;6.756;2023-06-14T04:49:10;7.33;;;4.90;;
2476;SDS011;1249;51.270;6.756;2023-06-14T04:51:43;6.53;;;5.47;;
2476;SDS011;1249;51.270;6.756;2023-06-14T04:54:10;7.13;;;6.53;;
2476;SDS011;1249;51.270;6.756;2023-06-14T04:56:38;6.53;;;5.37;;
2476;SDS011;1249;51.270;6.756;2023-06-14T04:59:04;6.10;;;5.50;;
2476;SDS011;1249;51.270;6.756;2023-06-14T05:01:30;5.40;;;5.00;;
2476;SDS011;1249;51.270;6.756;2023-06-14T05:03:59;6.40;;;5.27;;
2476;SDS011;1249;51.270;6.756;2023-06-14T05:06:25;5.60;;;5.10;;
2476;SDS011;1249;51.270;6.756;2023-06-14T05:08:52;6.87;;;5.13;;
2476;SDS011;1249;51.270;6.756;2023-06-14T05:11:18;6.63;;;5.10;;
2476;SDS011;1249;51.270;6.756;2023-06-14T05:13:43;5.50;;;5.00;;
2476;SDS011;1249;51.270;6.756;2023-06-14T05:16:10;5.30;;;4.80;;
2476;SDS011;1249;51.270;6.756;2023-06-14T05:18:40;5.90;;;5.20;;
2476;SDS011;1249;51.270;6.756;2023-06-14T05:21:06;7.83;;;5.20;;
2476;SDS011;1249;51.270;6.756;2023-06-14T05:23:32;5.80;;;4.87;;
2476;SDS011;1249;51.270;6.756;2023-06-14T05:25:57;5.50;;;5.00;;
2476;SDS011;1249;51.270;6.756;2023-06-14T05:28:23;9.87;;;5.40;;
2476;SDS011;1249;51.270;6.756;2023-06-14T05:30:49;7.33;;;4.03;;
2476;SDS011;1249;51.270;6.756;2023-06-14T05:33:16;7.50;;;4.90;;
2476;SDS011;1249;51.270;6.756;2023-06-14T05:35:41;4.77;;;4.37;;
2476;SDS011;1249;51.270;6.756;2023-06-14T05:38:07;7.90;;;4.90;;
2476;SDS011;1249;51.270;6.756;2023-06-14T05:40:33;4.53;;;4.13;;
2476;SDS011;1249;51.270;6.756;2023-06-14T05:42:59;4.57;;;4.17;;
2476;SDS011;1249;51.270;6.756;2023-06-14T05:45:24;6.97;;;4.20;;
2476;SDS011;1249;51.270;6.756;2023-06-14T05:47:50;6.43;;;4.80;;
2476;SDS011;1249;51.270;6.756;2023-06-14T05:50:16;5.03;;;4.20;;
2476;SDS011;1249;51.270;6.756;2023-06-14T05:52:41;3.87;;;3.47;;
2476;SDS011;1249;51.270;6.756;2023-06-14T05:55:07;4.67;;;4.23;;
2476;SDS011;1249;51.270;6.756;2023-06-14T05:57:33;6.90;;;3.77;;
2476;SDS011;1249;51.270;6.756;2023-06-14T05:59:59;4.70;;;3.97;;
2476;SDS011;1249;51.270;6.756;2023-06-14T06:02:24;4.57;;;4.27;;
2476;SDS011;1249;51.270;6.756;2023-06-14T06:04:50;6.03;;;4.10;;
2476;SDS011;1249;51.270;6.756;2023-06-14T06:07:16;4.47;;;4.07;;
2476;SDS011;1249;51.270;6.756;2023-06-14T06:09:41;6.60;;;3.77;;
2476;SDS011;1249;51.270;6.756;2023-06-14T06:12:07;4.50;;;3.70;;
2476;SDS011;1249;51.270;6.756;2023-06-14T06:14:32;4.43;;;3.70;;
2476;SDS011;1249;51.270;6.756;2023-06-14T06:16:58;5.13;;;3.47;;
2476;SDS011;1249;51.270;6.756;2023-06-14T06:19:23;3.83;;;3.20;;
2476;SDS011;1249;51.270;6.756;2023-06-14T06:21:49;4.60;;;3.73;;
2476;SDS011;1249;51.270;6.756;2023-06-14T06:24:15;4.10;;;3.70;;
2476;SDS011;1249;51.270;6.756;2023-06-14T06:26:41;3.77;;;3.40;;
2476;SDS011;1249;51.270;6.756;2023-06-14T06:29:06;4.60;;;3.80;;
2476;SDS011;1249;51.270;6.756;2023-06-14T06:31:32;5.70;;;3.27;;
2476;SDS011;1249;51.270;6.756;2023-06-14T06:33:58;3.63;;;3.40;;
2476;SDS011;1249;51.270;6.756;2023-06-14T06:36:23;5.40;;;3.57;;
2476;SDS011;1249;51.270;6.756;2023-06-14T06:38:49;3.60;;;3.40;;
2476;SDS011;1249;51.270;6.756;2023-06-14T06:41:15;3.60;;;3.30;;
2476;SDS011;1249;51.270;6.756;2023-06-14T06:43:41;3.23;;;2.93;;
2476;SDS011;1249;51.270;6.756;2023-06-14T06:46:06;3.80;;;3.50;;
2476;SDS011;1249;51.270;6.756;2023-06-14T06:48:32;3.73;;;3.43;;
2476;SDS011;1249;51.270;6.756;2023-06-14T06:50:57;2.80;;;2.60;;
2476;SDS011;1249;51.270;6.756;2023-06-14T06:53:23;4.87;;;2.93;;
2476;SDS011;1249;51.270;6.756;2023-06-14T06:55:49;3.43;;;3.13;;
2476;SDS011;1249;51.270;6.756;2023-06-14T06:58:14;3.87;;;2.60;;
2476;SDS011;1249;51.270;6.756;2023-06-14T07:00:40;3.30;;;3.00;;
2476;SDS011;1249;51.270;6.756;2023-06-14T07:03:06;3.23;;;2.93;;
2476;SDS011;1249;51.270;6.756;2023-06-14T07:05:31;3.13;;;2.93;;
2476;SDS011;1249;51.270;6.756;2023-06-14T07:07:57;3.67;;;3.30;;
2476;SDS011;1249;51.270;6.756;2023-06-14T07:10:23;3.20;;;3.00;;
2476;SDS011;1249;51.270;6.756;2023-06-14T07:12:49;2.60;;;1.93;;
2476;SDS011;1249;51.270;6.756;2023-06-14T07:15:15;4.17;;;2.60;;
2476;SDS011;1249;51.270;6.756;2023-06-14T07:17:41;3.57;;;3.27;;
2476;SDS011;1249;51.270;6.756;2023-06-14T07:20:07;8.90;;;3.60;;
2476;SDS011;1249;51.270;6.756;2023-06-14T07:22:38;2.80;;;2.60;;
2476;SDS011;1249;51.270;6.756;2023-06-14T07:25:05;3.00;;;2.70;;
2476;SDS011;1249;51.270;6.756;2023-06-14T07:27:33;2.80;;;2.60;;
2476;SDS011;1249;51.270;6.756;2023-06-14T07:29:58;3.90;;;3.30;;
2476;SDS011;1249;51.270;6.756;2023-06-14T07:32:24;3.63;;;2.43;;
2476;SDS011;1249;51.270;6.756;2023-06-14T07:34:50;2.90;;;2.60;;
2476;SDS011;1249;51.270;6.756;2023-06-14T07:37:15;2.40;;;2.20;;
2476;SDS011;1249;51.270;6.756;2023-06-14T07:39:41;4.00;;;2.83;;
2476;SDS011;1249;51.270;6.756;2023-06-14T07:42:06;3.33;;;2.70;;
2476;SDS011;1249;51.270;6.756;2023-06-14T07:44:32;2.93;;;2.40;;
2476;SDS011;1249;51.270;6.756;2023-06-14T07:46:57;2.83;;;2.63;;
2476;SDS011;1249;51.270;6.756;2023-06-14T07:49:24;2.57;;;2.10;;
2476;SDS011;1249;51.270;6.756;2023-06-14T07:51:50;6.20;;;2.73;;
2476;SDS011;1249;51.270;6.756;2023-06-14T07:54:16;2.50;;;2.30;;
2476;SDS011;1249;51.270;6.756;2023-06-14T07:56:42;3.03;;;2.53;;
2476;SDS011;1249;51.270;6.756;2023-06-14T07:59:08;2.83;;;2.40;;
2476;SDS011;1249;51.270;6.756;2023-06-14T08:01:34;2.60;;;2.40;;
2476;SDS011;1249;51.270;6.756;2023-06-14T08:03:59;3.10;;;2.80;;
2476;SDS011;1249;51.270;6.756;2023-06-14T08:06:26;2.20;;;2.00;;
2476;SDS011;1249;51.270;6.756;2023-06-14T08:08:52;2.50;;;2.30;;
2476;SDS011;1249;51.270;6.756;2023-06-14T08:11:17;2.23;;;2.03;;
2476;SDS011;1249;51.270;6.756;2023-06-14T08:13:43;2.20;;;2.00;;
2476;SDS011;1249;51.270;6.756;2023-06-14T08:16:09;3.33;;;2.80;;
2476;SDS011;1249;51.270;6.756;2023-06-14T08:18:35;3.47;;;2.67;;
2476;SDS011;1249;51.270;6.756;2023-06-14T08:21:01;3.37;;;2.50;;
2476;SDS011;1249;51.270;6.756;2023-06-14T08:23:27;2.93;;;2.10;;
2476;SDS011;1249;51.270;6.756;2023-06-14T08:25:53;2.13;;;1.93;;
2476;SDS011;1249;51.270;6.756;2023-06-14T08:28:19;2.40;;;2.20;;
2476;SDS011;1249;51.270;6.756;2023-06-14T08:30:45;2.33;;;1.97;;
2476;SDS011;1249;51.270;6.756;2023-06-14T08:33:10;3.03;;;2.20;;
2476;SDS011;1249;51.270;6.756;2023-06-14T08:35:36;2.60;;;2.40;;
2476;SDS011;1249;51.270;6.756;2023-06-14T08:38:03;3.60;;;2.27;;
2476;SDS011;1249;51.270;6.756;2023-06-14T08:40:29;2.63;;;2.20;;
2476;SDS011;1249;51.270;6.756;2023-06-14T08:42:55;2.43;;;2.23;;
2476;SDS011;1249;51.270;6.756;2023-06-14T08:45:23;4.67;;;2.67;;
2476;SDS011;1249;51.270;6.756;2023-06-14T08:47:53;2.27;;;1.93;;
2476;SDS011;1249;51.270;6.756;2023-06-14T08:50:23;2.30;;;2.10;;
2476;SDS011;1249;51.270;6.756;2023-06-14T08:52:55;2.30;;;2.10;;
2476;SDS011;1249;51.270;6.756;2023-06-14T08:55:25;2.67;;;2.37;;
2476;SDS011;1249;51.270;6.756;2023-06-14T08:57:56;3.87;;;2.20;;
2476;SDS011;1249;51.270;6.756;2023-06-14T09:00:23;3.17;;;2.53;;
2476;SDS011;1249;51.270;6.756;2023-06-14T09:02:50;3.70;;;2.43;;
2476;SDS011;1249;51.270;6.756;2023-06-14T09:05:20;2.40;;;2.13;;
2476;SDS011;1249;51.270;6.756;2023-06-14T09:07:48;2.37;;;2.17;;
2476;SDS011;1249;51.270;6.756;2023-06-14T09:10:15;2.60;;;2.40;;
2476;SDS011;1249;51.270;6.756;2023-06-14T09:12:41;2.53;;;2.33;;
2476;SDS011;1249;51.270;6.756;2023-06-14T09:15:10;3.00;;;2.80;;
2476;SDS011;1249;51.270;6.756;2023-06-14T09:17:36;2.00;;;1.90;;
2476;SDS011;1249;51.270;6.756;2023-06-14T09:20:03;2.63;;;1.77;;
2476;SDS011;1249;51.270;6.756;2023-06-14T09:22:31;7.90;;;2.53;;
2476;SDS011;1249;51.270;6.756;2023-06-14T09:24:57;2.83;;;2.33;;
2476;SDS011;1249;51.270;6.756;2023-06-14T09:27:24;2.27;;;1.90;;
2476;SDS011;1249;51.270;6.756;2023-06-14T09:29:51;3.20;;;2.53;;
2476;SDS011;1249;51.270;6.756;2023-06-14T09:32:17;3.50;;;2.37;;
2476;SDS011;1249;51.270;6.756;2023-06-14T09:34:43;2.00;;;1.90;;
2476;SDS011;1249;51.270;6.756;2023-06-14T09:37:09;2.53;;;2.30;;
2476;SDS011;1249;51.270;6.756;2023-06-14T09:39:34;2.23;;;1.97;;
2476;SDS011;1249;51.270;6.756;2023-06-14T09:42:00;2.00;;;1.80;;
2476;SDS011;1249;51.270;6.756;2023-06-14T09:44:25;3.10;;;2.80;;
2476;SDS011;1249;51.270;6.756;2023-06-14T09:46:55;5.43;;;2.57;;
2476;SDS011;1249;51.270;6.756;2023-06-14T09:49:21;5.50;;;2.43;;
2476;SDS011;1249;51.270;6.756;2023-06-14T09:51:48;7.00;;;2.50;;
2476;SDS011;1249;51.270;6.756;2023-06-14T09:54:20;2.40;;;2.20;;
2476;SDS011;1249;51.270;6.756;2023-06-14T09:56:48;6.47;;;2.70;;
2476;SDS011;1249;51.270;6.756;2023-06-14T09:59:16;4.33;;;2.77;;
2476;SDS011;1249;51.270;6.756;2023-06-14T10:01:46;2.47;;;2.27;;
2476;SDS011;1249;51.270;6.756;2023-06-14T10:04:12;2.83;;;2.63;;
2476;SDS011;1249;51.270;6.756;2023-06-14T10:06:40;2.50;;;2.30;;
2476;SDS011;1249;51.270;6.756;2023-06-14T10:09:10;3.10;;;2.50;;
2476;SDS011;1249;51.270;6.756;2023-06-14T10:11:36;2.73;;;2.30;;
2476;SDS011;1249;51.270;6.756;2023-06-14T10:14:08;2.50;;;2.30;;
2476;SDS011;1249;51.270;6.756;2023-06-14T10:19:42;2.10;;;1.90;;
2476;SDS011;1249;51.270;6.756;2023-06-14T10:22:22;2.47;;;2.27;;
2476;SDS011;1249;51.270;6.756;2023-06-14T10:24:54;7.80;;;2.40;;
2476;SDS011;1249;51.270;6.756;2023-06-14T10:27:20;2.50;;;2.00;;
2476;SDS011;1249;51.270;6.756;2023-06-14T10:32:18;2.20;;;2.00;;
2476;SDS011;1249;51.270;6.756;2023-06-14T10:35:01;1.80;;;1.70;;
2476;SDS011;1249;51.270;6.756;2023-06-14T10:37:27;3.53;;;2.20;;
2476;SDS011;1249;51.270;6.756;2023-06-14T10:39:53;4.43;;;2.50;;
2476;SDS011;1249;51.270;6.756;2023-06-14T10:42:19;1.97;;;1.77;;
2476;SDS011;1249;51.270;6.756;2023-06-14T10:49:53;3.00;;;1.70;;
2476;SDS011;1249;51.270;6.756;2023-06-14T10:52:22;2.10;;;1.70;;
2476;SDS011;1249;51.270;6.756;2023-06-14T10:57:31;2.20;;;2.00;;
2476;SDS011;1249;51.270;6.756;2023-06-14T10:59:59;2.33;;;1.90;;
2476;SDS011;1249;51.270;6.756;2023-06-14T11:02:41;1.63;;;1.53;;
2476;SDS011;1249;51.270;6.756;2023-06-14T11:08:18;2.70;;;1.77;;
2476;SDS011;1249;51.270;6.756;2023-06-14T11:10:59;2.17;;;1.90;;
2476;SDS011;1249;51.270;6.756;2023-06-14T11:13:25;1.70;;;1.50;;
2476;SDS011;1249;51.270;6.756;2023-06-14T11:15:51;2.63;;;1.67;;
2476;SDS011;1249;51.270;6.756;2023-06-14T11:18:21;2.03;;;1.83;;
2476;SDS011;1249;51.270;6.756;2023-06-14T11:20:49;1.90;;;1.53;;
2476;SDS011;1249;51.270;6.756;2023-06-14T11:23:15;1.77;;;1.67;;
2476;SDS011;1249;51.270;6.756;2023-06-14T11:25:41;2.23;;;1.93;;
2476;SDS011;1249;51.270;6.756;2023-06-14T11:28:07;3.50;;;1.70;;
2476;SDS011;1249;51.270;6.756;2023-06-14T11:30:32;3.67;;;2.23;;
2476;SDS011;1249;51.270;6.756;2023-06-14T11:32:58;4.43;;;2.10;;
2476;SDS011;1249;51.270;6.756;2023-06-14T11:35:24;2.20;;;2.07;;
2476;SDS011;1249;51.270;6.756;2023-06-14T11:37:54;2.80;;;1.80;;
2476;SDS011;1249;51.270;6.756;2023-06-14T11:40:23;2.07;;;1.90;;
2476;SDS011;1249;51.270;6.756;2023-06-14T11:42:49;2.10;;;1.97;;
2476;SDS011;1249;51.270;6.756;2023-06-14T11:45:22;2.00;;;1.80;;
2476;SDS011;1249;51.270;6.756;2023-06-14T11:47:48;2.40;;;2.00;;
2476;SDS011;1249;51.270;6.756;2023-06-14T11:50:13;2.83;;;2.20;;
2476;SDS011;1249;51.270;6.756;2023-06-14T11:52:39;2.10;;;1.90;;
2476;SDS011;1249;51.270;6.756;2023-06-14T11:55:05;2.57;;;2.00;;
2476;SDS011;1249;51.270;6.756;2023-06-14T11:57:34;2.00;;;1.90;;
2476;SDS011;1249;51.270;6.756;2023-06-14T12:00:03;2.23;;;1.60;;
2476;SDS011;1249;51.270;6.756;2023-06-14T12:02:40;2.40;;;1.97;;
2476;SDS011;1249;51.270;6.756;2023-06-14T12:05:06;1.70;;;1.47;;
2476;SDS011;1249;51.270;6.756;2023-06-14T12:07:38;2.20;;;2.00;;
2476;SDS011;1249;51.270;6.756;2023-06-14T12:10:07;2.33;;;1.73;;
2476;SDS011;1249;51.270;6.756;2023-06-14T12:12:37;3.30;;;1.90;;
2476;SDS011;1249;51.270;6.756;2023-06-14T12:15:04;2.00;;;1.60;;
2476;SDS011;1249;51.270;6.756;2023-06-14T12:17:32;2.30;;;2.10;;
2476;SDS011;1249;51.270;6.756;2023-06-14T12:19:59;2.00;;;1.70;;
2476;SDS011;1249;51.270;6.756;2023-06-14T12:22:39;2.23;;;1.53;;
2476;SDS011;1249;51.270;6.756;2023-06-14T12:25:22;2.53;;;1.93;;
2476;SDS011;1249;51.270;6.756;2023-06-14T12:27:52;1.77;;;1.67;;
2476;SDS011;1249;51.270;6.756;2023-06-14T12:30:21;3.10;;;1.90;;
2476;SDS011;1249;51.270;6.756;2023-06-14T12:32:47;1.53;;;1.43;;
2476;SDS011;1249;51.270;6.756;2023-06-14T12:35:13;3.40;;;1.80;;
2476;SDS011;1249;51.270;6.756;2023-06-14T12:37:39;4.00;;;2.67;;
2476;SDS011;1249;51.270;6.756;2023-06-14T12:40:05;1.80;;;1.70;;
2476;SDS011;1249;51.270;6.756;2023-06-14T12:42:31;1.47;;;1.37;;
2476;SDS011;1249;51.270;6.756;2023-06-14T12:44:58;3.20;;;1.70;;
2476;SDS011;1249;51.270;6.756;2023-06-14T12:47:24;1.70;;;1.60;;
2476;SDS011;1249;51.270;6.756;2023-06-14T12:49:50;3.57;;;1.53;;
2476;SDS011;1249;51.270;6.756;2023-06-14T12:52:16;3.80;;;1.50;;
2476;SDS011;1249;51.270;6.756;2023-06-14T12:54:41;2.57;;;1.67;;
2476;SDS011;1249;51.270;6.756;2023-06-14T12:57:07;1.60;;;1.40;;
2476;SDS011;1249;51.270;6.756;2023-06-14T12:59:33;3.97;;;2.07;;
2476;SDS011;1249;51.270;6.756;2023-06-14T13:02:00;1.70;;;1.60;;
2476;SDS011;1249;51.270;6.756;2023-06-14T13:04:41;2.37;;;1.57;;
2476;SDS011;1249;51.270;6.756;2023-06-14T13:07:08;11.13;;;2.00;;
2476;SDS011;1249;51.270;6.756;2023-06-14T13:09:35;1.93;;;1.83;;
2476;SDS011;1249;51.270;6.756;2023-06-14T13:12:01;1.60;;;1.50;;
2476;SDS011;1249;51.270;6.756;2023-06-14T13:14:26;1.60;;;1.50;;
2476;SDS011;1249;51.270;6.756;2023-06-14T13:16:52;1.80;;;1.70;;
2476;SDS011;1249;51.270;6.756;2023-06-14T13:19:18;3.60;;;1.63;;
2476;SDS011;1249;51.270;6.756;2023-06-14T13:21:43;1.80;;;1.70;;
2476;SDS011;1249;51.270;6.756;2023-06-14T13:24:09;1.80;;;1.70;;
2476;SDS011;1249;51.270;6.756;2023-06-14T13:26:34;1.90;;;1.80;;
2476;SDS011;1249;51.270;6.756;2023-06-14T13:29:00;3.23;;;2.07;;
2476;SDS011;1249;51.270;6.756;2023-06-14T13:31:26;2.33;;;1.60;;
2476;SDS011;1249;51.270;6.756;2023-06-14T13:33:51;2.67;;;2.10;;
2476;SDS011;1249;51.270;6.756;2023-06-14T13:36:17;2.13;;;1.70;;
2476;SDS011;1249;51.270;6.756;2023-06-14T13:38:42;4.87;;;2.30;;
2476;SDS011;1249;51.270;6.756;2023-06-14T13:41:08;3.10;;;1.70;;
2476;SDS011;1249;51.270;6.756;2023-06-14T13:43:33;2.17;;;2.00;;
2476;SDS011;1249;51.270;6.756;2023-06-14T13:45:59;2.90;;;2.07;;
2476;SDS011;1249;51.270;6.756;2023-06-14T13:48:25;2.27;;;2.07;;
2476;SDS011;1249;51.270;6.756;2023-06-14T13:50:51;2.60;;;2.10;;
2476;SDS011;1249;51.270;6.756;2023-06-14T13:53:16;2.23;;;2.00;;
2476;SDS011;1249;51.270;6.756;2023-06-14T13:55:42;7.10;;;2.10;;
2476;SDS011;1249;51.270;6.756;2023-06-14T13:58:08;3.60;;;2.20;;
2476;SDS011;1249;51.270;6.756;2023-06-14T14:00:34;2.73;;;1.87;;
2476;SDS011;1249;51.270;6.756;2023-06-14T14:03:02;2.87;;;2.03;;
2476;SDS011;1249;51.270;6.756;2023-06-14T14:05:28;4.23;;;2.30;;
2476;SDS011;1249;51.270;6.756;2023-06-14T14:07:55;2.73;;;2.53;;
2476;SDS011;1249;51.270;6.756;2023-06-14T14:10:22;2.77;;;1.80;;
2476;SDS011;1249;51.270;6.756;2023-06-14T14:12:48;3.00;;;2.20;;
2476;SDS011;1249;51.270;6.756;2023-06-14T14:15:14;2.37;;;2.10;;
2476;SDS011;1249;51.270;6.756;2023-06-14T14:17:40;2.30;;;1.90;;
2476;SDS011;1249;51.270;6.756;2023-06-14T14:20:06;2.20;;;2.00;;
2476;SDS011;1249;51.270;6.756;2023-06-14T14:22:32;2.20;;;2.00;;
2476;SDS011;1249;51.270;6.756;2023-06-14T14:24:58;2.77;;;2.20;;
2476;SDS011;1249;51.270;6.756;2023-06-14T14:27:23;4.77;;;2.10;;
2476;SDS011;1249;51.270;6.756;2023-06-14T14:29:49;2.57;;;2.37;;
2476;SDS011;1249;51.270;6.756;2023-06-14T14:32:14;2.60;;;2.40;;
2476;SDS011;1249;51.270;6.756;2023-06-14T14:34:40;2.10;;;2.00;;
2476;SDS011;1249;51.270;6.756;2023-06-14T14:37:06;2.20;;;1.90;;
2476;SDS011;1249;51.270;6.756;2023-06-14T14:39:31;1.90;;;1.80;;
2476;SDS011;1249;51.270;6.756;2023-06-14T14:41:57;2.93;;;2.47;;
2476;SDS011;1249;51.270;6.756;2023-06-14T14:44:28;2.67;;;2.10;;
2476;SDS011;1249;51.270;6.756;2023-06-14T14:46:54;2.33;;;1.90;;
2476;SDS011;1249;51.270;6.756;2023-06-14T14:49:19;3.40;;;2.50;;
2476;SDS011;1249;51.270;6.756;2023-06-14T14:51:45;2.43;;;2.23;;
2476;SDS011;1249;51.270;6.756;2023-06-14T14:54:11;3.90;;;2.10;;
2476;SDS011;1249;51.270;6.756;2023-06-14T14:56:36;2.80;;;2.60;;
2476;SDS011;1249;51.270;6.756;2023-06-14T14:59:03;2.90;;;2.30;;
2476;SDS011;1249;51.270;6.756;2023-06-14T15:01:28;4.00;;;2.17;;
2476;SDS011;1249;51.270;6.756;2023-06-14T15:03:54;2.40;;;2.30;;
2476;SDS011;1249;51.270;6.756;2023-06-14T15:06:20;2.37;;;2.10;;
2476;SDS011;1249;51.270;6.756;2023-06-14T15:08:45;2.80;;;2.60;;
2476;SDS011;1249;51.270;6.756;2023-06-14T15:11:11;2.40;;;2.20;;
2476;SDS011;1249;51.270;6.756;2023-06-14T15:13:36;2.57;;;2.37;;
2476;SDS011;1249;51.270;6.756;2023-06-14T15:16:02;2.90;;;2.70;;
2476;SDS011;1249;51.270;6.756;2023-06-14T15:18:28;2.53;;;2.33;;
2476;SDS011;1249;51.270;6.756;2023-06-14T15:20:53;2.40;;;2.20;;
2476;SDS011;1249;51.270;6.756;2023-06-14T15:23:19;2.80;;;2.47;;
2476;SDS011;1249;51.270;6.756;2023-06-14T15:25:45;2.87;;;2.67;;
2476;SDS011;1249;51.270;6.756;2023-06-14T15:28:13;2.67;;;2.47;;
2476;SDS011;1249;51.270;6.756;2023-06-14T15:30:39;2.93;;;2.70;;